createdAt,value
2019-03-11T00:00:13.412Z,49.63
2019-03-11T00:01:13.395Z,49.11
2019-03-11T00:02:13.387Z,49.01
2019-03-11T00:03:13.392Z,48.81
2019-03-11T00:04:14.359Z,48.91
2019-03-11T00:05:13.352Z,48.81
2019-03-11T00:06:13.349Z,48.91
2019-03-11T00:07:13.334Z,50.01
2019-03-11T00:08:13.324Z,49.21
2019-03-11T00:09:13.314Z,48.91
2019-03-11T00:10:13.313Z,49.21
2019-03-11T00:11:13.290Z,49.11
2019-03-11T00:12:13.283Z,49.31
2019-03-11T00:13:13.284Z,49.51
2019-03-11T00:14:13.261Z,49.11
2019-03-11T00:15:13.255Z,49.21
2019-03-11T00:16:13.242Z,49.11
2019-03-11T00:17:13.228Z,48.81
2019-03-11T00:18:13.227Z,49.80
2019-03-11T00:19:13.207Z,49.41
2019-03-11T00:20:13.202Z,48.61
2019-03-11T00:21:13.184Z,49.51
2019-03-11T00:22:13.174Z,49.31
2019-03-11T00:23:13.171Z,49.11
2019-03-11T00:24:13.152Z,49.31
2019-03-11T00:25:13.142Z,49.01
2019-03-11T00:26:13.142Z,49.11
2019-03-11T00:27:13.120Z,49.08
2019-03-11T00:28:13.110Z,48.91
2019-03-11T00:29:13.098Z,49.41
2019-03-11T00:30:13.106Z,49.11
2019-03-11T00:31:13.080Z,49.41
2019-03-11T00:32:13.079Z,49.49
2019-03-11T00:33:13.060Z,49.31
2019-03-11T00:34:13.047Z,49.11
2019-03-11T00:35:13.048Z,49.49
2019-03-11T00:36:13.060Z,48.81
2019-03-11T00:37:13.017Z,50.01
2019-03-11T00:38:13.032Z,48.79
2019-03-11T00:39:12.993Z,48.81
2019-03-11T00:40:12.986Z,48.11
2019-03-11T00:41:12.971Z,49.31
2019-03-11T00:42:13.124Z,48.89
2019-03-11T00:43:12.958Z,48.11
2019-03-11T00:44:12.964Z,49.21
2019-03-11T00:45:12.931Z,48.91
2019-03-11T00:46:12.927Z,49.21
2019-03-11T00:47:12.922Z,48.81
2019-03-11T00:48:12.933Z,50.31
2019-03-11T00:49:12.888Z,49.61
2019-03-11T00:50:12.880Z,49.41
2019-03-11T00:51:12.868Z,49.41
2019-03-11T00:52:12.857Z,49.61
2019-03-11T00:53:12.847Z,49.41
2019-03-11T00:54:12.841Z,49.31
2019-03-11T00:55:12.833Z,48.10
2019-03-11T00:56:12.813Z,45.01
2019-03-11T00:57:12.811Z,42.83
2019-03-11T00:58:12.794Z,43.23
2019-03-11T00:59:12.831Z,42.55
2019-03-11T01:00:12.780Z,43.44
2019-03-11T01:01:12.774Z,43.64
2019-03-11T01:02:12.752Z,44.76
2019-03-11T01:03:12.757Z,44.56
2019-03-11T01:04:12.732Z,44.36
2019-03-11T01:05:12.737Z,44.96
2019-03-11T01:06:12.718Z,44.68
2019-03-11T01:07:12.697Z,45.08
2019-03-11T01:08:12.689Z,44.80
2019-03-11T01:09:12.674Z,43.88
2019-03-11T01:10:12.667Z,45.20
2019-03-11T01:11:12.653Z,44.60
2019-03-11T01:12:12.648Z,44.40
2019-03-11T01:13:12.632Z,44.60
2019-03-11T01:14:12.624Z,44.80
2019-03-11T01:15:12.630Z,44.82
2019-03-11T01:16:12.603Z,44.53
2019-03-11T01:17:12.589Z,45.52
2019-03-11T01:18:12.594Z,45.52
2019-03-11T01:19:12.599Z,45.52
2019-03-11T01:20:12.561Z,45.44
2019-03-11T01:21:12.548Z,45.94
2019-03-11T01:22:12.561Z,45.44
2019-03-11T01:23:12.529Z,45.84
2019-03-11T01:24:12.531Z,45.74
2019-03-11T01:25:12.512Z,46.34
2019-03-11T01:26:12.546Z,45.74
2019-03-11T01:27:12.485Z,46.36
2019-03-11T01:28:12.483Z,45.96
2019-03-11T01:29:12.471Z,45.86
2019-03-11T01:30:12.452Z,46.26
2019-03-11T01:31:12.441Z,46.36
2019-03-11T01:32:12.435Z,46.56
2019-03-11T01:33:12.557Z,46.16
2019-03-11T01:34:12.415Z,46.26
2019-03-11T01:35:12.402Z,46.96
2019-03-11T01:36:12.544Z,47.36
2019-03-11T01:37:12.423Z,47.45
2019-03-11T01:38:12.432Z,47.45
2019-03-11T01:39:12.360Z,47.45
2019-03-11T01:40:12.352Z,47.45
2019-03-11T01:41:12.378Z,47.78
2019-03-11T01:42:12.331Z,47.58
2019-03-11T01:43:12.316Z,48.48
2019-03-11T01:44:12.317Z,47.58
2019-03-11T01:45:12.304Z,47.58
2019-03-11T01:46:12.297Z,48.18
2019-03-11T01:47:12.307Z,48.08
2019-03-11T01:48:12.272Z,48.08
2019-03-11T01:49:12.273Z,48.08
2019-03-11T01:50:12.244Z,48.28
2019-03-11T01:51:12.234Z,48.18
2019-03-11T01:52:12.227Z,48.18
2019-03-11T01:53:12.221Z,47.98
2019-03-11T01:54:12.207Z,49.08
2019-03-11T01:55:12.199Z,48.70
2019-03-11T01:56:12.182Z,48.97
2019-03-11T01:57:12.180Z,49.08
2019-03-11T01:58:12.178Z,49.48
2019-03-11T01:59:12.150Z,49.48
2019-03-11T02:00:12.141Z,49.70
2019-03-11T02:01:12.136Z,49.50
2019-03-11T02:02:12.122Z,49.20
2019-03-11T02:03:12.115Z,49.10
2019-03-11T02:04:12.109Z,49.50
2019-03-11T02:05:12.089Z,49.50
2019-03-11T02:06:12.091Z,49.50
2019-03-11T02:07:12.066Z,49.50
2019-03-11T02:08:12.057Z,49.30
2019-03-11T02:09:12.053Z,50.00
2019-03-11T02:10:12.052Z,50.49
2019-03-11T02:11:12.029Z,50.30
2019-03-11T02:12:12.010Z,50.20
2019-03-11T02:13:11.998Z,50.40
2019-03-11T02:14:11.985Z,50.20
2019-03-11T02:15:11.983Z,50.30
2019-03-11T02:16:11.971Z,49.90
2019-03-11T02:17:11.955Z,50.10
2019-03-11T02:18:11.941Z,50.10
2019-03-11T02:19:11.933Z,50.72
2019-03-11T02:20:11.927Z,50.79
2019-03-11T02:21:11.913Z,50.49
2019-03-11T02:22:11.942Z,50.92
2019-03-11T02:23:11.893Z,50.82
2019-03-11T02:24:11.878Z,50.62
2019-03-11T02:25:11.868Z,50.92
2019-03-11T02:26:11.864Z,50.92
2019-03-11T02:27:11.851Z,50.72
2019-03-11T02:28:11.844Z,50.22
2019-03-11T02:29:11.835Z,51.12
2019-03-11T02:30:11.818Z,50.72
2019-03-11T02:31:11.824Z,50.92
2019-03-11T02:32:11.797Z,50.72
2019-03-11T02:33:11.786Z,50.52
2019-03-11T02:34:11.783Z,50.72
2019-03-11T02:35:11.765Z,50.22
2019-03-11T02:36:11.766Z,50.72
2019-03-11T02:37:11.754Z,50.62
2019-03-11T02:38:11.734Z,50.74
2019-03-11T02:39:11.747Z,50.45
2019-03-11T02:40:11.718Z,50.84
2019-03-11T02:41:11.697Z,50.45
2019-03-11T02:42:11.688Z,50.42
2019-03-11T02:43:11.677Z,50.45
2019-03-11T02:44:11.670Z,50.35
2019-03-11T02:45:11.670Z,50.84
2019-03-11T02:46:11.660Z,50.35
2019-03-11T02:47:11.634Z,51.45
2019-03-11T02:48:11.624Z,50.54
2019-03-11T02:49:11.618Z,50.24
2019-03-11T02:50:11.619Z,50.84
2019-03-11T02:51:11.595Z,51.34
2019-03-11T02:52:11.587Z,51.34
2019-03-11T02:53:11.572Z,51.25
2019-03-11T02:54:11.561Z,50.95
2019-03-11T02:55:11.591Z,51.34
2019-03-11T02:56:11.554Z,50.84
2019-03-11T02:57:11.526Z,51.04
2019-03-11T02:58:11.517Z,51.94
2019-03-11T02:59:11.505Z,51.45
2019-03-11T03:00:11.493Z,51.94
2019-03-11T03:01:14.689Z,51.45
2019-03-11T03:02:11.470Z,51.54
2019-03-11T03:03:11.477Z,51.87
2019-03-11T03:04:11.462Z,51.27
2019-03-11T03:05:11.463Z,51.34
2019-03-11T03:06:11.430Z,51.15
2019-03-11T03:07:11.426Z,51.04
2019-03-11T03:08:11.410Z,52.17
2019-03-11T03:09:11.396Z,51.87
2019-03-11T03:10:11.386Z,51.75
2019-03-11T03:11:11.445Z,51.47
2019-03-11T03:12:11.364Z,51.75
2019-03-11T03:13:11.365Z,51.27
2019-03-11T03:14:11.341Z,51.75
2019-03-11T03:15:11.341Z,51.57
2019-03-11T03:16:11.361Z,51.67
2019-03-11T03:17:11.312Z,51.77
2019-03-11T03:18:11.299Z,51.77
2019-03-11T03:19:11.289Z,51.84
2019-03-11T03:20:11.274Z,52.17
2019-03-11T03:21:11.272Z,52.17
2019-03-11T03:22:11.255Z,52.07
2019-03-11T03:23:11.242Z,51.67
2019-03-11T03:24:11.238Z,51.47
2019-03-11T03:25:11.231Z,51.77
2019-03-11T03:26:11.213Z,51.37
2019-03-11T03:27:11.199Z,51.77
2019-03-11T03:28:11.186Z,51.67
2019-03-11T03:29:11.238Z,52.77
2019-03-11T03:30:11.172Z,52.27
2019-03-11T03:31:11.159Z,51.97
2019-03-11T03:32:11.153Z,52.27
2019-03-11T03:33:11.132Z,51.47
2019-03-11T03:34:11.179Z,52.17
2019-03-11T03:35:11.144Z,51.97
2019-03-11T03:36:11.100Z,52.27
2019-03-11T03:37:11.087Z,51.27
2019-03-11T03:38:11.088Z,51.97
2019-03-11T03:39:11.079Z,52.37
2019-03-11T03:40:11.064Z,51.97
2019-03-11T03:41:11.048Z,52.17
2019-03-11T03:42:13.253Z,52.17
2019-03-11T03:43:11.071Z,51.87
2019-03-11T03:44:11.013Z,51.67
2019-03-11T03:45:11.003Z,51.97
2019-03-11T03:46:18.817Z,52.07
2019-03-11T03:47:11.977Z,52.37
2019-03-11T03:48:10.973Z,52.17
2019-03-11T03:49:10.958Z,52.09
2019-03-11T03:50:10.951Z,51.47
2019-03-11T03:51:10.936Z,51.87
2019-03-11T03:52:10.925Z,51.97
2019-03-11T03:53:10.920Z,51.37
2019-03-11T03:54:10.929Z,52.00
2019-03-11T03:55:10.894Z,51.79
2019-03-11T03:56:10.886Z,51.57
2019-03-11T03:57:10.873Z,52.29
2019-03-11T03:58:10.936Z,51.67
2019-03-11T03:59:10.852Z,52.09
2019-03-11T04:00:10.838Z,51.89
2019-03-11T04:01:10.824Z,51.77
2019-03-11T04:02:10.857Z,52.17
2019-03-11T04:03:10.822Z,52.00
2019-03-11T04:04:10.794Z,52.00
2019-03-11T04:05:10.791Z,51.69
2019-03-11T04:06:10.770Z,51.59
2019-03-11T04:07:10.759Z,52.09
2019-03-11T04:08:10.746Z,51.39
2019-03-11T04:09:10.744Z,52.17
2019-03-11T04:10:10.752Z,52.09
2019-03-11T04:11:10.715Z,51.59
2019-03-11T04:12:10.708Z,52.29
2019-03-11T04:13:10.706Z,52.39
2019-03-11T04:14:10.688Z,52.29
2019-03-11T04:15:10.672Z,52.00
2019-03-11T04:16:10.671Z,51.69
2019-03-11T04:17:10.649Z,51.69
2019-03-11T04:18:10.645Z,51.50
2019-03-11T04:19:10.633Z,51.59
2019-03-11T04:20:10.620Z,52.29
2019-03-11T04:21:10.627Z,52.00
2019-03-11T04:22:10.602Z,51.50
2019-03-11T04:23:10.589Z,51.79
2019-03-11T04:24:10.578Z,51.69
2019-03-11T04:25:10.572Z,52.29
2019-03-11T04:26:10.559Z,51.79
2019-03-11T04:27:10.541Z,52.29
2019-03-11T04:28:10.546Z,52.49
2019-03-11T04:29:10.521Z,52.49
2019-03-11T04:30:10.526Z,52.49
2019-03-11T04:31:10.513Z,52.80
2019-03-11T04:32:10.508Z,52.39
2019-03-11T04:33:10.486Z,52.69
2019-03-11T04:34:10.474Z,52.80
2019-03-11T04:35:10.455Z,52.89
2019-03-11T04:36:10.443Z,52.99
2019-03-11T04:37:10.437Z,52.59
2019-03-11T04:38:10.419Z,52.09
2019-03-11T04:39:10.408Z,52.69
2019-03-11T04:40:10.398Z,53.19
2019-03-11T04:41:10.395Z,53.30
2019-03-11T04:42:10.378Z,52.80
2019-03-11T04:43:10.371Z,53.19
2019-03-11T04:44:10.354Z,53.49
2019-03-11T04:45:10.348Z,53.09
2019-03-11T04:46:10.336Z,53.19
2019-03-11T04:47:10.322Z,53.09
2019-03-11T04:48:10.322Z,53.39
2019-03-11T04:49:10.318Z,53.19
2019-03-11T04:50:10.289Z,53.22
2019-03-11T04:51:10.284Z,53.19
2019-03-11T04:52:10.265Z,52.69
2019-03-11T04:53:10.255Z,52.69
2019-03-11T04:54:10.258Z,53.30
2019-03-11T04:55:10.232Z,53.19
2019-03-11T04:56:10.227Z,53.39
2019-03-11T04:57:10.212Z,53.30
2019-03-11T04:58:10.209Z,53.19
2019-03-11T04:59:10.191Z,53.49
2019-03-11T05:00:10.198Z,53.09
2019-03-11T05:01:10.169Z,52.99
2019-03-11T05:02:10.157Z,53.09
2019-03-11T05:03:10.163Z,53.30
2019-03-11T05:04:10.135Z,52.99
2019-03-11T05:05:10.131Z,53.09
2019-03-11T05:06:10.113Z,53.09
2019-03-11T05:07:10.105Z,53.19
2019-03-11T05:08:10.097Z,53.30
2019-03-11T05:09:10.089Z,53.30
2019-03-11T05:10:10.072Z,53.22
2019-03-11T05:11:10.073Z,53.30
2019-03-11T05:12:10.051Z,53.19
2019-03-11T05:13:10.040Z,53.39
2019-03-11T05:14:10.031Z,53.19
2019-03-11T05:15:10.016Z,53.89
2019-03-11T05:16:10.008Z,53.89
2019-03-11T05:17:09.996Z,53.39
2019-03-11T05:18:09.980Z,53.30
2019-03-11T05:19:09.977Z,52.99
2019-03-11T05:20:09.958Z,53.30
2019-03-11T05:21:09.947Z,53.19
2019-03-11T05:22:09.939Z,53.22
2019-03-11T05:23:09.931Z,53.30
2019-03-11T05:24:09.914Z,53.39
2019-03-11T05:25:09.914Z,53.19
2019-03-11T05:26:09.892Z,53.39
2019-03-11T05:27:09.883Z,53.32
2019-03-11T05:28:09.880Z,53.32
2019-03-11T05:29:09.861Z,53.30
2019-03-11T05:30:09.850Z,53.30
2019-03-11T05:31:09.844Z,53.49
2019-03-11T05:32:09.836Z,53.32
2019-03-11T05:33:09.824Z,53.52
2019-03-11T05:34:09.807Z,53.32
2019-03-11T05:35:09.805Z,53.39
2019-03-11T05:36:09.785Z,53.62
2019-03-11T05:37:09.781Z,53.69
2019-03-11T05:38:09.764Z,53.39
2019-03-11T05:39:09.761Z,52.89
2019-03-11T05:40:09.740Z,53.89
2019-03-11T05:41:09.729Z,53.32
2019-03-11T05:42:09.895Z,53.22
2019-03-11T05:43:09.724Z,53.42
2019-03-11T05:44:09.697Z,53.09
2019-03-11T05:45:09.694Z,53.42
2019-03-11T05:46:11.731Z,53.92
2019-03-11T05:47:09.664Z,53.19
2019-03-11T05:48:09.666Z,53.69
2019-03-11T05:49:09.658Z,53.12
2019-03-11T05:50:09.637Z,53.42
2019-03-11T05:51:09.621Z,53.72
2019-03-11T05:52:09.623Z,53.42
2019-03-11T05:53:09.599Z,53.62
2019-03-11T05:54:09.590Z,53.92
2019-03-11T05:55:09.579Z,53.92
2019-03-11T05:56:09.574Z,53.42
2019-03-11T05:57:09.561Z,53.22
2019-03-11T05:58:09.561Z,53.62
2019-03-11T05:59:09.537Z,53.42
2019-03-11T06:00:09.531Z,53.22
2019-03-11T06:01:09.513Z,53.32
2019-03-11T06:02:09.521Z,53.82
2019-03-11T06:03:09.502Z,53.12
2019-03-11T06:04:09.556Z,53.82
2019-03-11T06:05:09.475Z,53.02
2019-03-11T06:06:09.471Z,53.32
2019-03-11T06:07:09.460Z,53.42
2019-03-11T06:08:09.458Z,53.12
2019-03-11T06:09:09.442Z,53.02
2019-03-11T06:10:09.420Z,53.52
2019-03-11T06:11:09.412Z,53.02
2019-03-11T06:12:09.410Z,53.32
2019-03-11T06:13:09.385Z,53.02
2019-03-11T06:14:09.378Z,53.02
2019-03-11T06:15:09.363Z,53.22
2019-03-11T06:16:09.351Z,53.22
2019-03-11T06:17:09.342Z,53.42
2019-03-11T06:18:09.329Z,53.42
2019-03-11T06:19:09.323Z,53.42
2019-03-11T06:20:09.308Z,53.22
2019-03-11T06:21:09.299Z,53.42
2019-03-11T06:22:09.286Z,53.12
2019-03-11T06:23:09.294Z,53.42
2019-03-11T06:24:09.275Z,53.52
2019-03-11T06:25:09.264Z,53.12
2019-03-11T06:26:09.243Z,53.02
2019-03-11T06:27:09.240Z,53.22
2019-03-11T06:28:09.223Z,53.22
2019-03-11T06:29:09.215Z,53.02
2019-03-11T06:30:09.209Z,53.02
2019-03-11T06:31:09.204Z,53.12
2019-03-11T06:32:09.177Z,53.12
2019-03-11T06:33:09.204Z,53.22
2019-03-11T06:34:09.160Z,53.22
2019-03-11T06:35:09.152Z,53.02
2019-03-11T06:36:09.148Z,53.24
2019-03-11T06:37:09.127Z,53.22
2019-03-11T06:38:09.117Z,52.92
2019-03-11T06:39:09.101Z,52.62
2019-03-11T06:40:09.099Z,52.72
2019-03-11T06:41:09.082Z,53.42
2019-03-11T06:42:09.080Z,53.42
2019-03-11T06:43:09.056Z,52.62
2019-03-11T06:44:09.047Z,52.82
2019-03-11T06:45:09.035Z,52.92
2019-03-11T06:46:09.027Z,52.92
2019-03-11T06:47:09.012Z,52.82
2019-03-11T06:48:09.003Z,53.42
2019-03-11T06:49:09.134Z,53.52
2019-03-11T06:50:08.995Z,53.22
2019-03-11T06:51:08.969Z,53.42
2019-03-11T06:52:09.019Z,53.22
2019-03-11T06:53:08.956Z,53.42
2019-03-11T06:54:08.942Z,53.22
2019-03-11T06:55:08.927Z,53.22
2019-03-11T06:56:08.946Z,53.42
2019-03-11T06:57:09.329Z,52.82
2019-03-11T06:58:08.900Z,53.42
2019-03-11T06:59:08.889Z,53.12
2019-03-11T07:00:08.870Z,53.32
2019-03-11T07:01:08.865Z,53.02
2019-03-11T07:02:08.848Z,53.42
2019-03-11T07:03:08.849Z,53.32
2019-03-11T07:04:08.828Z,53.42
2019-03-11T07:05:19.433Z,53.52
2019-03-11T07:06:09.841Z,53.42
2019-03-11T07:07:08.795Z,53.22
2019-03-11T07:08:08.782Z,52.92
2019-03-11T07:09:08.818Z,53.12
2019-03-11T07:10:08.786Z,53.42
2019-03-11T07:11:08.755Z,53.22
2019-03-11T07:12:08.737Z,52.92
2019-03-11T07:13:08.729Z,53.32
2019-03-11T07:14:08.725Z,53.22
2019-03-11T07:15:08.712Z,53.12
2019-03-11T07:16:09.571Z,53.22
2019-03-11T07:17:08.686Z,52.92
2019-03-11T07:18:08.741Z,53.19
2019-03-11T07:19:08.673Z,53.09
2019-03-11T07:20:08.657Z,53.32
2019-03-11T07:21:08.651Z,53.02
2019-03-11T07:22:08.632Z,53.22
2019-03-11T07:23:08.618Z,52.82
2019-03-11T07:24:08.607Z,52.89
2019-03-11T07:25:08.597Z,52.82
2019-03-11T07:26:08.586Z,52.39
2019-03-11T07:27:08.580Z,52.32
2019-03-11T07:28:08.569Z,52.22
2019-03-11T07:29:08.554Z,52.19
2019-03-11T07:30:08.543Z,52.22
2019-03-11T07:31:08.551Z,52.00
2019-03-11T07:32:08.566Z,52.39
2019-03-11T07:33:08.511Z,52.00
2019-03-11T07:34:08.503Z,52.19
2019-03-11T07:35:09.039Z,51.59
2019-03-11T07:36:08.478Z,52.29
2019-03-11T07:37:08.568Z,52.59
2019-03-11T07:38:08.466Z,52.49
2019-03-11T07:39:08.446Z,52.29
2019-03-11T07:40:08.434Z,52.00
2019-03-11T07:41:08.420Z,52.59
2019-03-11T07:42:08.417Z,52.19
2019-03-11T07:43:08.404Z,52.00
2019-03-11T07:44:08.401Z,51.69
2019-03-11T07:45:08.377Z,52.00
2019-03-11T07:46:08.368Z,51.69
2019-03-11T07:47:08.422Z,51.50
2019-03-11T07:48:08.344Z,51.69
2019-03-11T07:49:08.341Z,51.69
2019-03-11T07:50:08.325Z,52.09
2019-03-11T07:51:08.312Z,51.50
2019-03-11T07:52:08.311Z,51.59
2019-03-11T07:53:08.295Z,51.39
2019-03-11T07:54:08.281Z,51.59
2019-03-11T07:55:08.272Z,52.00
2019-03-11T07:56:08.257Z,51.59
2019-03-11T07:57:10.854Z,52.19
2019-03-11T07:58:08.235Z,51.59
2019-03-11T07:59:08.239Z,52.19
2019-03-11T08:00:08.220Z,51.79
2019-03-11T08:01:08.219Z,51.79
2019-03-11T08:02:08.192Z,52.09
2019-03-11T08:03:08.181Z,51.77
2019-03-11T08:04:08.169Z,51.67
2019-03-11T08:05:08.170Z,51.67
2019-03-11T08:06:18.142Z,51.87
2019-03-11T08:07:09.136Z,52.17
2019-03-11T08:08:08.201Z,51.57
2019-03-11T08:09:08.119Z,51.57
2019-03-11T08:10:08.274Z,51.97
2019-03-11T08:11:08.092Z,52.27
2019-03-11T08:12:08.087Z,52.57
2019-03-11T08:13:08.138Z,52.17
2019-03-11T08:14:08.061Z,51.97
2019-03-11T08:15:08.057Z,52.37
2019-03-11T08:16:08.065Z,51.87
2019-03-11T08:17:08.032Z,51.87
2019-03-11T08:18:10.640Z,52.37
2019-03-11T08:19:08.007Z,51.89
2019-03-11T08:20:07.996Z,52.19
2019-03-11T08:21:07.988Z,52.07
2019-03-11T08:22:07.982Z,52.09
2019-03-11T08:23:07.971Z,51.89
2019-03-11T08:24:07.967Z,52.29
2019-03-11T08:25:07.943Z,52.00
2019-03-11T08:26:07.934Z,51.69
2019-03-11T08:27:07.919Z,52.00
2019-03-11T08:28:07.922Z,51.59
2019-03-11T08:29:07.903Z,51.39
2019-03-11T08:30:07.885Z,52.29
2019-03-11T08:31:07.875Z,52.09
2019-03-11T08:32:07.864Z,52.29
2019-03-11T08:33:07.860Z,52.29
2019-03-11T08:34:07.845Z,52.19
2019-03-11T08:35:07.861Z,52.29
2019-03-11T08:36:07.822Z,52.29
2019-03-11T08:37:07.811Z,52.39
2019-03-11T08:38:07.805Z,52.59
2019-03-11T08:39:07.795Z,52.80
2019-03-11T08:40:07.778Z,52.49
2019-03-11T08:41:07.769Z,53.09
2019-03-11T08:42:07.757Z,52.09
2019-03-11T08:43:07.807Z,52.39
2019-03-11T08:44:07.734Z,52.59
2019-03-11T08:45:07.731Z,52.99
2019-03-11T08:46:07.717Z,52.80
2019-03-11T08:47:07.708Z,52.59
2019-03-11T08:48:07.688Z,53.39
2019-03-11T08:49:07.678Z,52.99
2019-03-11T08:50:07.668Z,53.49
2019-03-11T08:51:07.740Z,53.30
2019-03-11T08:52:07.649Z,53.39
2019-03-11T08:53:07.642Z,53.19
2019-03-11T08:54:07.624Z,53.42
2019-03-11T08:55:07.617Z,53.19
2019-03-11T08:56:07.604Z,53.30
2019-03-11T08:57:07.598Z,53.49
2019-03-11T08:58:07.578Z,53.32
2019-03-11T08:59:07.623Z,53.30
2019-03-11T09:00:07.558Z,53.39
2019-03-11T09:01:07.553Z,53.39
2019-03-11T09:02:07.536Z,53.19
2019-03-11T09:03:07.540Z,53.89
2019-03-11T09:04:07.517Z,53.69
2019-03-11T09:05:07.507Z,53.59
2019-03-11T09:06:07.489Z,53.19
2019-03-11T09:07:07.481Z,53.89
2019-03-11T09:08:08.137Z,53.49
2019-03-11T09:09:07.473Z,53.49
2019-03-11T09:10:07.458Z,53.09
2019-03-11T09:11:07.441Z,53.59
2019-03-11T09:12:07.425Z,53.79
2019-03-11T09:13:07.414Z,53.79
2019-03-11T09:14:07.411Z,53.79
2019-03-11T09:15:07.400Z,53.89
2019-03-11T09:16:07.388Z,52.89
2019-03-11T09:17:07.391Z,53.69
2019-03-11T09:18:07.370Z,53.30
2019-03-11T09:19:07.357Z,54.10
2019-03-11T09:20:07.353Z,53.39
2019-03-11T09:21:07.430Z,53.42
2019-03-11T09:22:07.313Z,52.39
2019-03-11T09:23:07.302Z,51.50
2019-03-11T09:24:18.388Z,52.19
2019-03-11T09:25:08.285Z,49.40
2019-03-11T09:26:07.271Z,48.32
2019-03-11T09:27:07.263Z,48.22
2019-03-11T09:28:07.249Z,47.61
2019-03-11T09:29:07.239Z,47.81
2019-03-11T09:30:07.227Z,47.81
2019-03-11T09:31:07.226Z,48.22
2019-03-11T09:32:07.214Z,47.81
2019-03-11T09:33:08.471Z,48.02
2019-03-11T09:34:07.182Z,49.52
2019-03-11T09:35:07.178Z,49.41
2019-03-11T09:36:07.298Z,50.02
2019-03-11T09:37:07.196Z,50.82
2019-03-11T09:38:07.155Z,49.72
2019-03-11T09:39:07.139Z,49.62
2019-03-11T09:40:07.118Z,49.22
2019-03-11T09:41:07.105Z,49.11
2019-03-11T09:42:07.099Z,49.72
2019-03-11T09:43:07.484Z,49.41
2019-03-11T09:44:07.176Z,49.52
2019-03-11T09:45:07.063Z,49.82
2019-03-11T09:46:07.052Z,49.52
2019-03-11T09:47:07.040Z,49.62
2019-03-11T09:48:07.476Z,49.41
2019-03-11T09:49:07.020Z,49.32
2019-03-11T09:50:07.041Z,49.41
2019-03-11T09:51:07.022Z,49.54
2019-03-11T09:52:06.988Z,49.14
2019-03-11T09:53:06.983Z,49.22
2019-03-11T09:54:06.981Z,49.41
2019-03-11T09:55:06.986Z,49.52
2019-03-11T09:56:09.521Z,49.41
2019-03-11T09:57:06.983Z,49.84
2019-03-11T09:58:06.926Z,49.34
2019-03-11T09:59:06.924Z,49.74
2019-03-11T10:00:06.898Z,49.64
2019-03-11T10:01:06.904Z,49.41
2019-03-11T10:02:06.877Z,49.52
2019-03-11T10:03:06.867Z,49.74
2019-03-11T10:04:06.898Z,49.54
2019-03-11T10:05:06.853Z,49.82
2019-03-11T10:06:06.833Z,49.62
2019-03-11T10:07:06.826Z,50.14
2019-03-11T10:08:06.812Z,49.84
2019-03-11T10:09:06.830Z,49.52
2019-03-11T10:10:06.800Z,49.62
2019-03-11T10:11:06.794Z,49.41
2019-03-11T10:12:06.778Z,49.84
2019-03-11T10:13:06.826Z,49.72
2019-03-11T10:14:06.998Z,49.72
2019-03-11T10:15:06.743Z,49.52
2019-03-11T10:16:06.739Z,49.62
2019-03-11T10:17:06.753Z,49.72
2019-03-11T10:18:06.712Z,50.22
2019-03-11T10:19:06.756Z,49.41
2019-03-11T10:20:06.726Z,49.64
2019-03-11T10:21:06.675Z,49.91
2019-03-11T10:22:06.710Z,49.82
2019-03-11T10:23:06.655Z,49.82
2019-03-11T10:24:06.646Z,49.82
2019-03-11T10:25:06.625Z,49.52
2019-03-11T10:26:06.627Z,49.54
2019-03-11T10:27:06.617Z,49.82
2019-03-11T10:28:06.592Z,50.22
2019-03-11T10:29:06.612Z,49.72
2019-03-11T10:30:06.606Z,49.41
2019-03-11T10:31:06.915Z,49.52
2019-03-11T10:32:06.552Z,49.41
2019-03-11T10:33:06.544Z,49.52
2019-03-11T10:34:06.648Z,49.32
2019-03-11T10:35:06.528Z,49.91
2019-03-11T10:36:06.537Z,49.62
2019-03-11T10:37:06.623Z,49.52
2019-03-11T10:38:06.490Z,49.32
2019-03-11T10:39:06.485Z,45.72
2019-03-11T10:40:06.502Z,44.82
2019-03-11T10:41:06.470Z,45.74
2019-03-11T10:42:06.445Z,47.92
2019-03-11T10:43:06.434Z,47.81
2019-03-11T10:44:06.430Z,51.42
2019-03-11T10:45:06.804Z,49.22
2019-03-11T10:46:06.400Z,48.02
2019-03-11T10:47:06.394Z,50.22
2019-03-11T10:48:06.419Z,52.02
2019-03-11T10:49:06.387Z,49.29
2019-03-11T10:50:06.356Z,49.99
2019-03-11T10:51:06.353Z,49.29
2019-03-11T10:52:07.376Z,49.19
2019-03-11T10:53:06.346Z,49.19
2019-03-11T10:54:06.326Z,49.29
2019-03-11T10:55:06.305Z,49.29
2019-03-11T10:56:06.290Z,49.59
2019-03-11T10:57:06.307Z,49.27
2019-03-11T10:58:06.269Z,49.07
2019-03-11T10:59:06.275Z,49.57
2019-03-11T11:00:06.297Z,49.17
2019-03-11T11:01:06.279Z,49.87
2019-03-11T11:02:06.225Z,49.37
2019-03-11T11:03:06.214Z,49.57
2019-03-11T11:04:06.214Z,49.15
2019-03-11T11:05:06.207Z,49.74
2019-03-11T11:06:06.186Z,49.35
2019-03-11T11:07:06.186Z,49.44
2019-03-11T11:08:06.162Z,49.25
2019-03-11T11:09:06.164Z,48.94
2019-03-11T11:10:06.149Z,48.05
2019-03-11T11:11:06.151Z,48.72
2019-03-11T11:12:06.126Z,49.02
2019-03-11T11:13:06.254Z,49.32
2019-03-11T11:14:06.105Z,49.72
2019-03-11T11:15:06.084Z,49.12
2019-03-11T11:16:06.074Z,49.62
2019-03-11T11:17:06.242Z,49.42
2019-03-11T11:18:06.060Z,49.40
2019-03-11T11:19:06.037Z,49.30
2019-03-11T11:20:06.032Z,50.00
2019-03-11T11:21:06.020Z,49.40
2019-03-11T11:22:06.021Z,49.20
2019-03-11T11:23:05.997Z,49.50
2019-03-11T11:24:06.003Z,49.30
2019-03-11T11:25:06.161Z,48.30
2019-03-11T11:26:05.963Z,49.30
2019-03-11T11:27:05.956Z,49.30
2019-03-11T11:28:05.974Z,49.00
2019-03-11T11:29:05.985Z,49.40
2019-03-11T11:30:05.943Z,49.50
2019-03-11T11:31:05.912Z,48.10
2019-03-11T11:32:05.907Z,48.50
2019-03-11T11:33:05.922Z,49.10
2019-03-11T11:34:05.892Z,50.30
2019-03-11T11:35:05.885Z,48.38
2019-03-11T11:36:05.874Z,48.97
2019-03-11T11:37:05.850Z,48.20
2019-03-11T11:38:05.836Z,49.48
2019-03-11T11:39:05.833Z,48.38
2019-03-11T11:40:05.819Z,48.08
2019-03-11T11:41:05.806Z,48.20
2019-03-11T11:42:05.793Z,47.50
2019-03-11T11:43:05.787Z,48.08
2019-03-11T11:44:05.768Z,48.38
2019-03-11T11:45:05.770Z,47.08
2019-03-11T11:46:05.764Z,47.38
2019-03-11T11:47:05.756Z,47.28
2019-03-11T11:48:08.238Z,47.08
2019-03-11T11:49:05.772Z,47.58
2019-03-11T11:50:05.704Z,48.08
2019-03-11T11:51:05.760Z,46.28
2019-03-11T11:52:05.683Z,47.08
2019-03-11T11:53:05.768Z,47.28
2019-03-11T11:54:05.662Z,46.08
2019-03-11T11:55:05.687Z,46.48
2019-03-11T11:56:05.650Z,46.98
2019-03-11T11:57:05.668Z,45.89
2019-03-11T11:58:05.625Z,46.58
2019-03-11T11:59:05.646Z,46.28
2019-03-11T12:00:05.597Z,46.28
2019-03-11T12:01:05.586Z,46.19
2019-03-11T12:02:05.582Z,46.58
2019-03-11T12:03:05.575Z,47.38
2019-03-11T12:04:05.566Z,46.19
2019-03-11T12:05:05.544Z,46.58
2019-03-11T12:06:05.534Z,46.28
2019-03-11T12:07:05.523Z,46.19
2019-03-11T12:08:05.514Z,46.88
2019-03-11T12:09:05.521Z,46.68
2019-03-11T12:10:05.618Z,45.18
2019-03-11T12:11:05.481Z,44.89
2019-03-11T12:12:06.248Z,42.69
2019-03-11T12:13:05.460Z,44.99
2019-03-11T12:14:05.450Z,45.98
2019-03-11T12:15:05.440Z,44.59
2019-03-11T12:16:05.427Z,44.19
2019-03-11T12:17:05.424Z,45.39
2019-03-11T12:18:05.402Z,44.89
2019-03-11T12:19:05.399Z,45.18
2019-03-11T12:20:05.395Z,45.78
2019-03-11T12:21:05.374Z,45.98
2019-03-11T12:22:05.369Z,45.39
2019-03-11T12:23:05.351Z,45.09
2019-03-11T12:24:05.347Z,46.08
2019-03-11T12:25:05.329Z,45.89
2019-03-11T12:26:05.333Z,45.68
2019-03-11T12:27:05.312Z,45.89
2019-03-11T12:28:05.300Z,45.48
2019-03-11T12:29:05.291Z,45.39
2019-03-11T12:30:05.371Z,46.19
2019-03-11T12:31:05.265Z,45.39
2019-03-11T12:32:05.268Z,45.26
2019-03-11T12:33:05.240Z,45.86
2019-03-11T12:34:05.231Z,45.76
2019-03-11T12:35:05.227Z,45.06
2019-03-11T12:36:05.224Z,44.27
2019-03-11T12:37:05.200Z,43.77
2019-03-11T12:38:05.189Z,46.36
2019-03-11T12:39:05.174Z,44.96
2019-03-11T12:40:05.163Z,44.37
2019-03-11T12:41:05.161Z,45.06
2019-03-11T12:42:05.142Z,45.36
2019-03-11T12:43:05.137Z,45.47
2019-03-11T12:44:05.129Z,45.17
2019-03-11T12:45:05.110Z,44.07
2019-03-11T12:46:05.105Z,45.36
2019-03-11T12:47:05.089Z,45.26
2019-03-11T12:48:05.079Z,45.36
2019-03-11T12:49:05.070Z,44.96
2019-03-11T12:50:05.057Z,44.87
2019-03-11T12:51:05.043Z,44.27
2019-03-11T12:52:05.036Z,43.37